createdAt,value
2023-03-25T00:00:39.647Z,16.32
2023-03-25T00:03:09.346Z,16.37
2023-03-25T00:05:39.614Z,16.39
2023-03-25T00:08:07.980Z,16.38
2023-03-25T00:10:35.601Z,16.45
2023-03-25T00:13:23.641Z,16.53
2023-03-25T00:15:58.443Z,16.49
2023-03-25T00:18:33.636Z,16.49
2023-03-25T00:21:02.446Z,16.38
2023-03-25T00:23:30.454Z,16.37
2023-03-25T00:26:01.087Z,16.26
2023-03-25T00:28:31.034Z,16.24
2023-03-25T00:31:09.337Z,16.16
2023-03-25T00:33:37.263Z,16.08
2023-03-25T00:36:05.608Z,15.97
2023-03-25T00:38:36.150Z,15.91
2023-03-25T00:41:13.364Z,15.90
2023-03-25T00:43:40.945Z,15.84
2023-03-25T00:46:08.521Z,15.78
2023-03-25T00:48:36.713Z,15.69
2023-03-25T00:51:10.230Z,15.68
2023-03-25T00:53:38.207Z,15.60
2023-03-25T00:56:05.478Z,15.56
2023-03-25T00:58:33.764Z,15.66
2023-03-25T01:01:01.912Z,15.65
2023-03-25T01:03:29.974Z,15.64
2023-03-25T01:05:58.055Z,15.62
2023-03-25T01:08:25.374Z,15.57
2023-03-25T01:10:54.477Z,15.50
2023-03-25T01:13:22.564Z,15.40
2023-03-25T01:15:50.469Z,15.27
2023-03-25T01:18:19.077Z,15.20
2023-03-25T01:20:47.273Z,15.15
2023-03-25T01:23:15.446Z,15.07
2023-03-25T01:25:42.557Z,15.10
2023-03-25T01:28:10.903Z,15.13
2023-03-25T01:30:38.578Z,15.06
2023-03-25T01:33:06.287Z,15.03
2023-03-25T01:35:34.417Z,14.97
2023-03-25T01:38:02.179Z,14.93
2023-03-25T01:40:30.560Z,14.95
2023-03-25T01:42:58.219Z,14.97
2023-03-25T01:45:28.556Z,15.05
2023-03-25T01:48:10.524Z,15.02
2023-03-25T01:50:39.115Z,15.00
2023-03-25T01:53:09.333Z,15.04
2023-03-25T01:55:36.507Z,15.04
2023-03-25T01:58:10.791Z,14.95
2023-03-25T02:00:42.159Z,14.89
2023-03-25T02:03:12.140Z,14.79
2023-03-25T02:05:43.415Z,14.76
2023-03-25T02:08:11.520Z,14.77
2023-03-25T02:10:39.713Z,14.71
2023-03-25T02:13:06.940Z,14.73
2023-03-25T02:16:00.492Z,14.67
2023-03-25T02:18:44.863Z,14.62
2023-03-25T02:21:39.277Z,14.57
2023-03-25T02:24:14.276Z,14.54
2023-03-25T02:27:27.419Z,14.46
2023-03-25T02:30:28.739Z,14.41
2023-03-25T02:33:26.631Z,14.34
2023-03-25T02:36:11.685Z,14.35
2023-03-25T02:38:56.033Z,14.25
2023-03-25T02:41:39.016Z,14.08
2023-03-25T02:44:30.343Z,14.05
2023-03-25T02:46:59.279Z,13.90
2023-03-25T02:49:30.424Z,13.80
2023-03-25T02:52:01.197Z,13.63
2023-03-25T02:54:28.726Z,13.57
2023-03-25T02:56:58.672Z,13.45
2023-03-25T02:59:25.779Z,13.39
2023-03-25T03:01:58.618Z,13.31
2023-03-25T03:04:26.277Z,13.31
2023-03-25T03:06:53.889Z,13.28
2023-03-25T03:09:27.522Z,13.27
2023-03-25T03:12:00.213Z,13.35
2023-03-25T03:14:41.502Z,13.41
2023-03-25T03:17:18.385Z,13.49
2023-03-25T03:19:58.042Z,13.52
2023-03-25T03:22:37.007Z,13.48
2023-03-25T03:25:12.459Z,13.44
2023-03-25T03:27:49.668Z,13.46
2023-03-25T03:30:27.273Z,13.48
2023-03-25T03:33:13.531Z,13.48
2023-03-25T03:35:57.388Z,13.51
2023-03-25T03:38:49.037Z,13.44
2023-03-25T03:41:40.927Z,13.30
2023-03-25T03:44:11.222Z,13.25
2023-03-25T03:46:41.928Z,13.24
2023-03-25T03:49:10.663Z,13.26
2023-03-25T03:51:41.675Z,13.23
2023-03-25T03:54:19.923Z,13.21
2023-03-25T03:57:11.044Z,13.37
2023-03-25T03:59:50.492Z,13.47
2023-03-25T04:02:35.039Z,13.66
2023-03-25T04:05:03.213Z,13.79
2023-03-25T04:07:39.087Z,13.96
2023-03-25T04:10:15.234Z,14.19
2023-03-25T04:12:45.562Z,14.36
2023-03-25T04:15:14.046Z,14.44
2023-03-25T04:17:43.126Z,14.51
2023-03-25T04:20:14.474Z,14.61
2023-03-25T04:22:45.849Z,14.66
2023-03-25T04:25:14.136Z,14.77
2023-03-25T04:27:45.770Z,14.77
2023-03-25T04:30:14.102Z,14.73
2023-03-25T04:32:42.505Z,14.73
2023-03-25T04:35:18.720Z,14.66
2023-03-25T04:37:47.179Z,14.69
2023-03-25T04:40:35.254Z,14.62
2023-03-25T04:43:02.918Z,14.60
2023-03-25T04:45:30.774Z,14.60
2023-03-25T04:47:58.906Z,14.65
2023-03-25T04:50:28.176Z,14.55
2023-03-25T04:52:57.574Z,14.50
2023-03-25T04:55:25.878Z,14.51
2023-03-25T04:57:54.894Z,14.47
2023-03-25T05:00:24.370Z,14.46
2023-03-25T05:02:54.174Z,14.39
2023-03-25T05:05:23.238Z,14.48
2023-03-25T05:07:54.717Z,14.42
2023-03-25T05:10:26.962Z,14.41
2023-03-25T05:13:05.562Z,14.28
2023-03-25T05:15:35.569Z,14.10
2023-03-25T05:18:03.720Z,14.10
2023-03-25T05:20:34.780Z,14.06
2023-03-25T05:23:12.415Z,14.06
2023-03-25T05:25:40.736Z,14.08
2023-03-25T05:28:09.997Z,14.02
2023-03-25T05:30:41.974Z,13.99
2023-03-25T05:33:10.641Z,14.22
2023-03-25T05:35:39.306Z,14.29
2023-03-25T05:38:09.984Z,14.35
2023-03-25T05:40:37.902Z,14.38
2023-03-25T05:43:06.683Z,14.40
2023-03-25T05:45:36.250Z,14.54
2023-03-25T05:48:04.399Z,14.63
2023-03-25T05:50:32.268Z,14.61
2023-03-25T05:53:00.096Z,14.63
2023-03-25T05:55:28.016Z,14.69
2023-03-25T05:57:57.542Z,14.50
2023-03-25T06:00:25.628Z,14.57
2023-03-25T06:02:53.473Z,14.59
2023-03-25T06:05:23.950Z,14.67
2023-03-25T06:07:51.181Z,14.72
2023-03-25T06:10:19.524Z,14.91
2023-03-25T06:12:47.387Z,14.95
2023-03-25T06:15:29.284Z,14.95
2023-03-25T06:17:57.785Z,15.06
2023-03-25T06:20:25.939Z,15.20
2023-03-25T06:22:54.470Z,15.25
2023-03-25T06:25:22.655Z,15.29
2023-03-25T06:27:50.759Z,15.27
2023-03-25T06:30:19.974Z,15.35
2023-03-25T06:32:51.150Z,15.39
2023-03-25T06:35:20.154Z,15.45
2023-03-25T06:37:48.986Z,15.42
2023-03-25T06:40:19.461Z,15.44
2023-03-25T06:42:47.098Z,15.51
2023-03-25T06:45:16.455Z,15.57
2023-03-25T06:47:44.328Z,15.63
2023-03-25T06:50:12.691Z,15.75
2023-03-25T06:52:39.872Z,15.80
2023-03-25T06:55:09.610Z,15.77
2023-03-25T06:57:37.968Z,15.68
2023-03-25T07:00:09.810Z,15.85
2023-03-25T07:02:38.041Z,15.92
2023-03-25T07:05:07.535Z,16.00
2023-03-25T07:07:35.259Z,16.02
2023-03-25T07:10:03.269Z,16.00
2023-03-25T07:12:30.906Z,16.00
2023-03-25T07:14:59.131Z,15.98
2023-03-25T07:17:26.459Z,16.11
2023-03-25T07:19:54.668Z,16.20
2023-03-25T07:22:22.739Z,16.17
2023-03-25T07:24:53.631Z,16.30
2023-03-25T07:27:21.282Z,16.32
2023-03-25T07:29:49.286Z,16.54
2023-03-25T07:32:17.688Z,16.59
2023-03-25T07:34:45.548Z,16.46
2023-03-25T07:37:13.932Z,16.48
2023-03-25T07:39:41.955Z,16.60
2023-03-25T07:42:09.944Z,16.86
2023-03-25T07:44:37.631Z,16.92
2023-03-25T07:47:05.739Z,16.80
2023-03-25T07:49:33.866Z,16.80
2023-03-25T07:52:02.345Z,16.96
2023-03-25T07:54:52.579Z,16.98
2023-03-25T07:57:19.518Z,17.18
2023-03-25T07:59:47.696Z,17.16
2023-03-25T08:02:15.727Z,17.22
2023-03-25T08:04:43.805Z,17.20
2023-03-25T08:07:12.109Z,17.34
2023-03-25T08:09:40.500Z,17.31
2023-03-25T08:12:09.610Z,17.55
2023-03-25T08:14:37.254Z,17.42
2023-03-25T08:17:07.026Z,17.56
2023-03-25T08:19:34.840Z,17.73
2023-03-25T08:22:02.361Z,17.64
2023-03-25T08:24:32.576Z,17.65
2023-03-25T08:27:13.865Z,17.66
2023-03-25T08:29:44.676Z,17.64
2023-03-25T08:32:12.736Z,17.78
2023-03-25T08:34:41.216Z,17.86
2023-03-25T08:37:10.119Z,18.06
2023-03-25T08:39:40.224Z,18.17
2023-03-25T08:42:09.277Z,18.26
2023-03-25T08:44:36.968Z,18.25
2023-03-25T08:47:05.909Z,18.30
2023-03-25T08:49:33.830Z,18.25
2023-03-25T08:52:04.486Z,18.40
2023-03-25T08:54:32.500Z,18.42
2023-03-25T08:57:00.896Z,18.62
2023-03-25T08:59:28.535Z,18.73
2023-03-25T09:01:57.739Z,18.77
2023-03-25T09:04:26.254Z,18.74
2023-03-25T09:07:12.073Z,18.72
2023-03-25T09:09:41.396Z,18.72
2023-03-25T09:12:08.912Z,18.71
2023-03-25T09:14:36.872Z,18.77
2023-03-25T09:17:06.156Z,18.99
2023-03-25T09:19:35.416Z,19.02
2023-03-25T09:22:03.621Z,19.18
2023-03-25T09:24:34.441Z,19.15
2023-03-25T09:27:02.220Z,19.38
2023-03-25T09:29:30.391Z,19.21
2023-03-25T09:31:59.660Z,19.15
2023-03-25T09:34:27.331Z,19.26
2023-03-25T09:36:55.289Z,19.49
2023-03-25T09:39:23.793Z,19.44
2023-03-25T09:41:51.002Z,19.36
2023-03-25T09:44:34.875Z,19.32
2023-03-25T09:47:02.835Z,19.53
2023-03-25T09:49:53.695Z,19.66
2023-03-25T09:52:23.720Z,19.63
2023-03-25T09:54:55.519Z,19.74
2023-03-25T09:57:23.798Z,19.64
2023-03-25T09:59:51.498Z,19.68
2023-03-25T10:02:41.608Z,19.70
2023-03-25T10:05:27.816Z,19.76
2023-03-25T10:08:19.883Z,19.73
2023-03-25T10:10:48.857Z,19.84
2023-03-25T10:13:35.162Z,19.78
2023-03-25T10:16:43.853Z,19.91
2023-03-25T10:19:25.753Z,19.82
2023-03-25T10:22:01.092Z,20.01
2023-03-25T10:24:46.522Z,20.37
2023-03-25T10:27:19.216Z,20.26
2023-03-25T10:29:53.848Z,20.47
2023-03-25T10:32:39.147Z,20.54
2023-03-25T10:35:09.433Z,20.57
2023-03-25T10:37:42.108Z,20.68
2023-03-25T10:40:24.182Z,20.57
2023-03-25T10:43:19.003Z,20.50
2023-03-25T10:45:46.405Z,20.50
2023-03-25T10:48:22.610Z,20.73
2023-03-25T10:50:50.669Z,20.86
2023-03-25T10:53:36.829Z,21.10
2023-03-25T10:56:17.755Z,21.53
2023-03-25T10:58:47.448Z,22.00
2023-03-25T11:01:19.743Z,23.12
2023-03-25T11:03:51.710Z,23.93
2023-03-25T11:06:29.668Z,24.38
2023-03-25T11:08:58.826Z,24.45
2023-03-25T11:11:51.652Z,24.11
2023-03-25T11:14:24.048Z,24.46
2023-03-25T11:17:05.792Z,24.53
2023-03-25T11:19:47.167Z,24.65
2023-03-25T11:22:18.963Z,24.55
2023-03-25T11:24:49.446Z,24.34
2023-03-25T11:27:24.971Z,24.63
2023-03-25T11:29:54.263Z,24.19
2023-03-25T11:33:13.292Z,23.97
2023-03-25T11:36:22.038Z,23.76
2023-03-25T11:38:54.140Z,23.68
2023-03-25T11:41:21.402Z,23.46
2023-03-25T11:43:49.650Z,23.10
2023-03-25T11:46:18.496Z,23.29
2023-03-25T11:48:46.879Z,23.13
2023-03-25T11:51:15.621Z,23.26
2023-03-25T11:53:51.312Z,23.30
2023-03-25T11:56:22.447Z,23.55
2023-03-25T11:58:49.641Z,23.45
2023-03-25T12:01:26.002Z,23.28
2023-03-25T12:03:53.843Z,23.99
2023-03-25T12:06:31.145Z,24.30
2023-03-25T12:09:00.848Z,24.37
2023-03-25T12:11:46.887Z,24.77
2023-03-25T12:14:19.984Z,24.49
2023-03-25T12:17:28.389Z,24.52
2023-03-25T12:20:30.699Z,25.03
2023-03-25T12:23:04.689Z,24.69
2023-03-25T12:25:53.648Z,25.03
2023-03-25T12:28:38.834Z,25.48
2023-03-25T12:31:12.676Z,25.85
2023-03-25T12:33:52.674Z,25.86
2023-03-25T12:36:40.368Z,25.48
2023-03-25T12:39:42.227Z,25.84
2023-03-25T12:42:25.305Z,25.44
2023-03-25T12:45:16.041Z,25.83
2023-03-25T12:47:44.027Z,25.91
2023-03-25T12:50:33.757Z,26.08
2023-03-25T12:53:02.309Z,25.70
2023-03-25T12:55:51.748Z,26.12
2023-03-25T12:58:59.973Z,26.23
2023-03-25T13:01:49.266Z,26.21
2023-03-25T13:04:20.820Z,25.90
2023-03-25T13:06:53.704Z,25.86
2023-03-25T13:09:29.024Z,26.33
2023-03-25T13:11:59.203Z,25.92
2023-03-25T13:14:31.459Z,26.05
2023-03-25T13:17:00.323Z,26.47
2023-03-25T13:19:28.589Z,26.72
2023-03-25T13:21:57.638Z,27.16
2023-03-25T13:24:35.339Z,26.99
2023-03-25T13:27:02.420Z,27.24
2023-03-25T13:29:37.905Z,27.19
2023-03-25T13:32:10.486Z,26.96
2023-03-25T13:34:58.045Z,26.97
2023-03-25T13:37:33.479Z,26.80
2023-03-25T13:40:19.303Z,27.28
2023-03-25T13:42:58.537Z,27.67
2023-03-25T13:45:26.509Z,27.71
2023-03-25T13:48:14.678Z,27.15
2023-03-25T13:50:41.378Z,27.39
2023-03-25T13:53:15.899Z,26.76
2023-03-25T13:56:12.137Z,27.08
2023-03-25T13:58:54.039Z,27.31
2023-03-25T14:01:39.376Z,27.81
2023-03-25T14:04:21.343Z,27.93
2023-03-25T14:07:06.568Z,27.80
2023-03-25T14:10:14.680Z,27.76
2023-03-25T14:12:54.003Z,27.61
2023-03-25T14:15:26.563Z,27.84
2023-03-25T14:17:54.504Z,27.92
2023-03-25T14:20:32.691Z,27.84
2023-03-25T14:23:02.679Z,27.96
2023-03-25T14:25:38.137Z,28.36
2023-03-25T14:28:07.918Z,28.33
2023-03-25T14:30:35.909Z,27.78
2023-03-25T14:33:04.336Z,27.82
2023-03-25T14:35:34.414Z,26.93
2023-03-25T14:38:11.409Z,26.63
2023-03-25T14:41:01.346Z,26.21
2023-03-25T14:44:02.147Z,25.82
2023-03-25T14:46:32.581Z,25.97
2023-03-25T14:49:05.927Z,25.66
2023-03-25T14:51:42.618Z,26.08
2023-03-25T14:54:18.440Z,26.64
2023-03-25T14:56:48.523Z,27.00
2023-03-25T14:59:19.605Z,27.11
2023-03-25T15:01:49.618Z,26.49
2023-03-25T15:04:22.646Z,26.71
2023-03-25T15:06:49.456Z,26.80
2023-03-25T15:09:17.849Z,27.03
2023-03-25T15:11:51.877Z,27.41
2023-03-25T15:14:24.987Z,27.67
2023-03-25T15:16:56.608Z,27.65
2023-03-25T15:19:23.778Z,27.00
2023-03-25T15:22:06.098Z,26.86
2023-03-25T15:24:36.717Z,26.12
2023-03-25T15:27:20.240Z,25.86
2023-03-25T15:30:03.247Z,25.78
2023-03-25T15:32:58.803Z,25.39
2023-03-25T15:35:45.236Z,25.49
2023-03-25T15:39:00.563Z,25.47
2023-03-25T15:41:36.418Z,25.20
2023-03-25T15:44:20.991Z,25.40
2023-03-25T15:47:06.811Z,24.83
2023-03-25T15:49:52.636Z,25.03
2023-03-25T15:52:22.525Z,25.33
2023-03-25T15:54:56.380Z,25.75
2023-03-25T15:57:25.637Z,26.26
2023-03-25T16:00:14.373Z,26.55
2023-03-25T16:02:43.774Z,27.43
2023-03-25T16:05:11.333Z,27.37
2023-03-25T16:07:38.722Z,27.61
2023-03-25T16:10:14.916Z,28.25
2023-03-25T16:12:42.986Z,28.73
2023-03-25T16:15:14.303Z,28.49
2023-03-25T16:17:41.356Z,28.46
2023-03-25T16:20:13.976Z,27.98
2023-03-25T16:22:43.283Z,27.08
2023-03-25T16:25:14.705Z,27.17
2023-03-25T16:27:48.997Z,26.48
2023-03-25T16:30:20.318Z,26.01
2023-03-25T16:32:48.064Z,25.84
2023-03-25T16:35:25.005Z,26.27
2023-03-25T16:37:56.174Z,25.85
2023-03-25T16:40:29.202Z,25.43
2023-03-25T16:42:58.328Z,25.16
2023-03-25T16:45:26.069Z,24.81
2023-03-25T16:47:54.324Z,25.20
2023-03-25T16:50:21.544Z,25.25
2023-03-25T16:52:50.441Z,24.97
2023-03-25T16:55:28.788Z,24.64
2023-03-25T16:57:55.451Z,24.28
2023-03-25T17:00:25.542Z,24.25
2023-03-25T17:02:54.182Z,24.15
2023-03-25T17:05:26.257Z,24.08
2023-03-25T17:08:11.505Z,24.10
2023-03-25T17:10:56.454Z,24.02
2023-03-25T17:13:52.285Z,23.86
2023-03-25T17:16:20.556Z,23.42
2023-03-25T17:18:54.932Z,23.05
2023-03-25T17:21:26.647Z,22.78
2023-03-25T17:23:55.751Z,22.51
2023-03-25T17:26:24.742Z,22.32
2023-03-25T17:28:51.900Z,22.18
2023-03-25T17:31:30.632Z,22.06
2023-03-25T17:34:02.289Z,21.95
2023-03-25T17:36:37.402Z,21.83
2023-03-25T17:39:06.606Z,21.76
2023-03-25T17:41:38.578Z,21.66
2023-03-25T17:44:05.716Z,21.50
2023-03-25T17:46:33.240Z,21.32
2023-03-25T17:49:01.149Z,21.10
2023-03-25T17:51:30.351Z,20.93
2023-03-25T17:53:57.487Z,20.81
2023-03-25T17:56:28.409Z,20.70
2023-03-25T17:59:23.104Z,20.64
2023-03-25T18:01:51.075Z,20.62
2023-03-25T18:04:20.003Z,20.63
2023-03-25T18:06:47.531Z,20.62
2023-03-25T18:09:23.629Z,20.61
2023-03-25T18:12:14.549Z,20.58
2023-03-25T18:14:44.023Z,20.54
2023-03-25T18:17:15.097Z,20.52
2023-03-25T18:19:42.726Z,20.44
2023-03-25T18:22:19.833Z,20.39
2023-03-25T18:24:48.435Z,20.33
2023-03-25T18:27:16.289Z,20.28
2023-03-25T18:29:48.303Z,20.27
2023-03-25T18:32:15.859Z,20.13
2023-03-25T18:34:43.382Z,20.04
2023-03-25T18:37:10.902Z,19.92
2023-03-25T18:39:39.017Z,19.82
2023-03-25T18:42:07.560Z,19.73
2023-03-25T18:44:35.316Z,19.55
2023-03-25T18:47:03.214Z,19.34
2023-03-25T18:49:31.342Z,19.18
2023-03-25T18:51:59.371Z,18.99
2023-03-25T18:54:27.213Z,18.82
2023-03-25T18:56:56.912Z,18.64
2023-03-25T18:59:25.362Z,18.56
2023-03-25T19:01:53.321Z,18.46
2023-03-25T19:04:21.555Z,18.36
2023-03-25T19:06:49.641Z,18.26
2023-03-25T19:09:22.864Z,18.23
2023-03-25T19:11:50.732Z,18.13
2023-03-25T19:14:18.251Z,18.01
2023-03-25T19:16:57.174Z,17.90
2023-03-25T19:19:29.227Z,17.89
2023-03-25T19:21:58.964Z,17.80
2023-03-25T19:24:26.937Z,17.70
2023-03-25T19:26:54.860Z,17.67
2023-03-25T19:29:22.877Z,17.57
2023-03-25T19:31:50.836Z,17.45
2023-03-25T19:34:22.092Z,17.40
2023-03-25T19:36:51.332Z,17.27
2023-03-25T19:39:26.236Z,17.27
2023-03-25T19:41:56.955Z,17.16
2023-03-25T19:44:25.580Z,17.07
2023-03-25T19:46:54.064Z,16.99
2023-03-25T19:49:32.884Z,16.94
2023-03-25T19:52:07.665Z,16.92
2023-03-25T19:54:35.686Z,16.85
2023-03-25T19:57:03.485Z,16.77
2023-03-25T19:59:32.219Z,16.65
2023-03-25T20:02:00.266Z,16.55
2023-03-25T20:04:28.638Z,16.50
2023-03-25T20:06:57.328Z,16.43
2023-03-25T20:09:24.902Z,16.39
2023-03-25T20:11:52.333Z,16.35
2023-03-25T20:14:20.568Z,16.30
2023-03-25T20:16:48.441Z,16.25
2023-03-25T20:19:17.857Z,16.29
2023-03-25T20:21:46.377Z,16.28
2023-03-25T20:24:14.916Z,16.27
2023-03-25T20:26:45.056Z,16.28
2023-03-25T20:29:13.266Z,16.28
2023-03-25T20:31:41.431Z,16.23
2023-03-25T20:34:09.727Z,16.16
2023-03-25T20:36:37.424Z,16.09
2023-03-25T20:39:05.915Z,16.07
2023-03-25T20:41:34.157Z,16.07
2023-03-25T20:44:03.181Z,16.05
2023-03-25T20:46:31.623Z,16.08
2023-03-25T20:49:03.438Z,16.05
2023-03-25T20:51:31.187Z,15.99
2023-03-25T20:53:59.386Z,15.91
2023-03-25T20:56:27.527Z,15.86
2023-03-25T20:58:55.867Z,15.82
2023-03-25T21:01:23.622Z,15.77
2023-03-25T21:03:54.376Z,15.79
2023-03-25T21:06:25.517Z,15.78
2023-03-25T21:08:55.960Z,15.69
2023-03-25T21:11:23.452Z,15.60
2023-03-25T21:13:51.577Z,15.57
2023-03-25T21:16:19.678Z,15.53
2023-03-25T21:18:49.465Z,15.47
2023-03-25T21:21:19.614Z,15.46
2023-03-25T21:23:48.106Z,15.42
2023-03-25T21:26:17.558Z,15.47
2023-03-25T21:28:45.267Z,15.47
2023-03-25T21:31:20.736Z,15.46
2023-03-25T21:33:50.804Z,15.40
2023-03-25T21:36:22.352Z,15.40
2023-03-25T21:38:50.756Z,15.43
2023-03-25T21:41:18.869Z,15.35
2023-03-25T21:43:47.883Z,15.34
2023-03-25T21:46:15.634Z,15.31
2023-03-25T21:48:51.556Z,15.31
2023-03-25T21:51:20.426Z,15.28
2023-03-25T21:53:47.655Z,15.27
2023-03-25T21:56:18.789Z,15.27
2023-03-25T21:58:45.776Z,15.31
2023-03-25T22:01:14.873Z,15.26
2023-03-25T22:03:45.388Z,15.25
2023-03-25T22:06:20.445Z,15.23
2023-03-25T22:08:48.688Z,15.18
2023-03-25T22:11:26.329Z,15.16
2023-03-25T22:14:16.470Z,15.17
2023-03-25T22:17:14.718Z,15.15
2023-03-25T22:19:42.642Z,15.13
2023-03-25T22:22:11.278Z,15.12
2023-03-25T22:24:39.178Z,15.11
2023-03-25T22:27:07.657Z,15.11
2023-03-25T22:29:35.895Z,15.07
2023-03-25T22:32:07.292Z,15.00
2023-03-25T22:34:35.092Z,15.00
2023-03-25T22:37:13.116Z,14.91
2023-03-25T22:39:41.019Z,14.87
2023-03-25T22:42:09.215Z,14.86
2023-03-25T22:44:36.868Z,14.76
2023-03-25T22:47:05.238Z,14.75
2023-03-25T22:49:32.950Z,14.69
2023-03-25T22:52:01.413Z,14.62
2023-03-25T22:54:29.248Z,14.64
2023-03-25T22:56:57.419Z,14.61
2023-03-25T22:59:25.047Z,14.57
2023-03-25T23:01:53.175Z,14.62
2023-03-25T23:04:20.737Z,14.73
2023-03-25T23:07:00.616Z,14.68
2023-03-25T23:09:47.735Z,14.71
2023-03-25T23:12:17.096Z,14.69
2023-03-25T23:14:51.327Z,14.68
2023-03-25T23:17:18.545Z,14.60
2023-03-25T23:19:47.113Z,14.57
2023-03-25T23:22:16.736Z,14.54
2023-03-25T23:24:45.028Z,14.48
2023-03-25T23:27:12.882Z,14.53
2023-03-25T23:29:41.666Z,14.51
2023-03-25T23:32:10.902Z,14.48
2023-03-25T23:34:39.128Z,14.47
2023-03-25T23:37:07.686Z,14.46
2023-03-25T23:39:35.824Z,14.46
2023-03-25T23:42:04.265Z,14.51
2023-03-25T23:44:32.316Z,14.45
2023-03-25T23:47:00.813Z,14.43
2023-03-25T23:49:33.271Z,14.50
2023-03-25T23:52:01.423Z,14.43
2023-03-25T23:54:30.003Z,14.44
2023-03-25T23:56:58.853Z,14.42
2023-03-25T23:59:26.917Z,14.47
